sensor_id;sensor_type;location;lat;lon;timestamp;temperature;humidity
35445;DHT22;21562;49.476;6.086;2023-02-17T00:01:22;9.90;99.90
35445;DHT22;21562;49.476;6.086;2023-02-17T00:03:49;9.80;99.90
35445;DHT22;21562;49.476;6.086;2023-02-17T00:06:18;9.80;99.90
35445;DHT22;21562;49.476;6.086;2023-02-17T00:08:45;9.90;99.90
35445;DHT22;21562;49.476;6.086;2023-02-17T00:11:11;9.80;99.90
35445;DHT22;21562;49.476;6.086;2023-02-17T00:13:37;9.80;99.90
35445;DHT22;21562;49.476;6.086;2023-02-17T00:16:08;9.80;99.90
35445;DHT22;21562;49.476;6.086;2023-02-17T00:18:34;9.80;99.90
35445;DHT22;21562;49.476;6.086;2023-02-17T00:20:59;9.90;99.90
35445;DHT22;21562;49.476;6.086;2023-02-17T00:23:25;9.90;99.90
35445;DHT22;21562;49.476;6.086;2023-02-17T00:25:50;10.00;99.90
35445;DHT22;21562;49.476;6.086;2023-02-17T00:28:16;9.90;99.90
35445;DHT22;21562;49.476;6.086;2023-02-17T00:30:41;9.90;99.90
35445;DHT22;21562;49.476;6.086;2023-02-17T00:33:07;9.90;99.90
35445;DHT22;21562;49.476;6.086;2023-02-17T00:35:33;9.80;99.90
35445;DHT22;21562;49.476;6.086;2023-02-17T00:37:58;9.80;99.90
35445;DHT22;21562;49.476;6.086;2023-02-17T00:40:24;9.80;99.90
35445;DHT22;21562;49.476;6.086;2023-02-17T00:42:50;9.80;99.90
35445;DHT22;21562;49.476;6.086;2023-02-17T00:45:15;9.80;99.90
35445;DHT22;21562;49.476;6.086;2023-02-17T00:47:41;9.80;99.90
35445;DHT22;21562;49.476;6.086;2023-02-17T00:50:07;9.90;99.90
35445;DHT22;21562;49.476;6.086;2023-02-17T00:52:33;9.90;99.90
35445;DHT22;21562;49.476;6.086;2023-02-17T00:54:58;9.90;99.90
35445;DHT22;21562;49.476;6.086;2023-02-17T00:57:24;10.00;99.90
35445;DHT22;21562;49.476;6.086;2023-02-17T00:59:50;10.00;99.90
35445;DHT22;21562;49.476;6.086;2023-02-17T01:02:17;10.00;99.90
35445;DHT22;21562;49.476;6.086;2023-02-17T01:04:42;10.00;99.90
35445;DHT22;21562;49.476;6.086;2023-02-17T01:07:08;10.00;99.90
35445;DHT22;21562;49.476;6.086;2023-02-17T01:09:34;10.00;99.90
35445;DHT22;21562;49.476;6.086;2023-02-17T01:11:59;10.00;99.90
35445;DHT22;21562;49.476;6.086;2023-02-17T01:14:25;10.00;99.90
35445;DHT22;21562;49.476;6.086;2023-02-17T01:16:50;9.90;99.90
35445;DHT22;21562;49.476;6.086;2023-02-17T01:19:17;10.00;99.90
35445;DHT22;21562;49.476;6.086;2023-02-17T01:21:43;10.00;99.90
35445;DHT22;21562;49.476;6.086;2023-02-17T01:24:10;9.90;99.90
35445;DHT22;21562;49.476;6.086;2023-02-17T01:26:37;10.00;99.90
35445;DHT22;21562;49.476;6.086;2023-02-17T01:29:04;10.00;99.90
35445;DHT22;21562;49.476;6.086;2023-02-17T01:31:31;10.00;99.90
35445;DHT22;21562;49.476;6.086;2023-02-17T01:33:59;9.90;99.90
35445;DHT22;21562;49.476;6.086;2023-02-17T01:36:25;9.90;99.90
35445;DHT22;21562;49.476;6.086;2023-02-17T01:38:50;9.90;99.90
35445;DHT22;21562;49.476;6.086;2023-02-17T01:41:19;9.90;99.90
35445;DHT22;21562;49.476;6.086;2023-02-17T01:46:32;10.00;99.90
35445;DHT22;21562;49.476;6.086;2023-02-17T01:48:58;9.90;99.90
35445;DHT22;21562;49.476;6.086;2023-02-17T01:51:31;9.90;99.90
35445;DHT22;21562;49.476;6.086;2023-02-17T01:54:03;9.90;99.90
35445;DHT22;21562;49.476;6.086;2023-02-17T01:56:30;10.00;99.90
35445;DHT22;21562;49.476;6.086;2023-02-17T01:59:04;10.00;99.90
35445;DHT22;21562;49.476;6.086;2023-02-17T02:01:31;9.90;99.90
35445;DHT22;21562;49.476;6.086;2023-02-17T02:03:57;9.80;99.90
35445;DHT22;21562;49.476;6.086;2023-02-17T02:06:26;9.90;99.90
35445;DHT22;21562;49.476;6.086;2023-02-17T02:09:03;9.90;99.90
35445;DHT22;21562;49.476;6.086;2023-02-17T02:11:29;9.80;99.90
35445;DHT22;21562;49.476;6.086;2023-02-17T02:13:56;9.80;99.90
35445;DHT22;21562;49.476;6.086;2023-02-17T02:16:32;9.90;99.90
35445;DHT22;21562;49.476;6.086;2023-02-17T02:25:23;9.70;99.90
35445;DHT22;21562;49.476;6.086;2023-02-17T02:36:36;9.70;99.90
35445;DHT22;21562;49.476;6.086;2023-02-17T02:39:08;9.60;99.90
35445;DHT22;21562;49.476;6.086;2023-02-17T02:41:56;9.80;99.90
35445;DHT22;21562;49.476;6.086;2023-02-17T02:44:23;9.80;99.90
35445;DHT22;21562;49.476;6.086;2023-02-17T02:47:00;9.70;99.90
35445;DHT22;21562;49.476;6.086;2023-02-17T02:49:27;9.80;99.90
35445;DHT22;21562;49.476;6.086;2023-02-17T02:52:17;9.90;99.90
35445;DHT22;21562;49.476;6.086;2023-02-17T03:00:28;10.00;99.90
35445;DHT22;21562;49.476;6.086;2023-02-17T03:03:16;10.10;99.90
35445;DHT22;21562;49.476;6.086;2023-02-17T03:08:18;9.90;99.90
35445;DHT22;21562;49.476;6.086;2023-02-17T03:10:50;9.80;99.90
35445;DHT22;21562;49.476;6.086;2023-02-17T03:13:18;9.90;99.90
35445;DHT22;21562;49.476;6.086;2023-02-17T03:15:44;9.80;99.90
35445;DHT22;21562;49.476;6.086;2023-02-17T03:18:10;9.80;99.90
35445;DHT22;21562;49.476;6.086;2023-02-17T03:20:44;9.70;99.90
35445;DHT22;21562;49.476;6.086;2023-02-17T03:23:13;9.70;99.90
35445;DHT22;21562;49.476;6.086;2023-02-17T03:25:39;9.70;99.90
35445;DHT22;21562;49.476;6.086;2023-02-17T03:28:04;9.80;99.90
35445;DHT22;21562;49.476;6.086;2023-02-17T03:30:30;9.90;99.90
35445;DHT22;21562;49.476;6.086;2023-02-17T03:32:55;9.90;99.90
35445;DHT22;21562;49.476;6.086;2023-02-17T03:35:21;9.90;99.90
35445;DHT22;21562;49.476;6.086;2023-02-17T03:37:47;9.80;99.90
35445;DHT22;21562;49.476;6.086;2023-02-17T03:40:12;10.00;99.90
35445;DHT22;21562;49.476;6.086;2023-02-17T03:42:38;10.00;99.90
35445;DHT22;21562;49.476;6.086;2023-02-17T03:45:04;10.00;99.90
35445;DHT22;21562;49.476;6.086;2023-02-17T03:47:30;9.90;99.90
35445;DHT22;21562;49.476;6.086;2023-02-17T03:49:55;9.80;99.90
35445;DHT22;21562;49.476;6.086;2023-02-17T03:52:21;9.80;99.90
35445;DHT22;21562;49.476;6.086;2023-02-17T03:54:47;9.90;99.90
35445;DHT22;21562;49.476;6.086;2023-02-17T03:57:12;9.80;99.90
35445;DHT22;21562;49.476;6.086;2023-02-17T03:59:38;9.90;99.90
35445;DHT22;21562;49.476;6.086;2023-02-17T04:02:03;10.00;99.90
35445;DHT22;21562;49.476;6.086;2023-02-17T04:04:29;9.90;99.90
35445;DHT22;21562;49.476;6.086;2023-02-17T04:06:55;9.90;99.90
35445;DHT22;21562;49.476;6.086;2023-02-17T04:09:20;9.80;99.90
35445;DHT22;21562;49.476;6.086;2023-02-17T04:11:46;9.80;99.90
35445;DHT22;21562;49.476;6.086;2023-02-17T04:14:11;9.80;99.90
35445;DHT22;21562;49.476;6.086;2023-02-17T04:16:37;9.80;99.90
35445;DHT22;21562;49.476;6.086;2023-02-17T04:19:05;9.80;99.90
35445;DHT22;21562;49.476;6.086;2023-02-17T04:21:31;9.80;99.90
35445;DHT22;21562;49.476;6.086;2023-02-17T04:23:58;9.80;99.90
35445;DHT22;21562;49.476;6.086;2023-02-17T04:26:24;9.80;99.90
35445;DHT22;21562;49.476;6.086;2023-02-17T04:28:49;9.90;99.90
35445;DHT22;21562;49.476;6.086;2023-02-17T04:31:15;9.80;99.90
35445;DHT22;21562;49.476;6.086;2023-02-17T04:33:41;9.90;99.90
35445;DHT22;21562;49.476;6.086;2023-02-17T04:36:06;9.90;99.90
35445;DHT22;21562;49.476;6.086;2023-02-17T04:38:32;9.90;99.90
35445;DHT22;21562;49.476;6.086;2023-02-17T04:40:59;9.90;99.90
35445;DHT22;21562;49.476;6.086;2023-02-17T04:43:26;9.90;99.90
35445;DHT22;21562;49.476;6.086;2023-02-17T04:45:52;10.00;99.90
35445;DHT22;21562;49.476;6.086;2023-02-17T04:48:18;10.00;99.90
35445;DHT22;21562;49.476;6.086;2023-02-17T04:50:44;9.90;99.90
35445;DHT22;21562;49.476;6.086;2023-02-17T04:53:10;9.90;99.90
35445;DHT22;21562;49.476;6.086;2023-02-17T04:55:36;10.00;99.90
35445;DHT22;21562;49.476;6.086;2023-02-17T04:58:01;10.00;99.90
35445;DHT22;21562;49.476;6.086;2023-02-17T05:00:27;10.00;99.90
35445;DHT22;21562;49.476;6.086;2023-02-17T05:02:53;10.10;99.90
35445;DHT22;21562;49.476;6.086;2023-02-17T05:05:18;10.10;99.90
35445;DHT22;21562;49.476;6.086;2023-02-17T05:07:45;10.20;99.90
35445;DHT22;21562;49.476;6.086;2023-02-17T05:10:12;10.20;99.90
35445;DHT22;21562;49.476;6.086;2023-02-17T05:12:38;10.10;99.90
35445;DHT22;21562;49.476;6.086;2023-02-17T05:15:05;10.10;99.90
35445;DHT22;21562;49.476;6.086;2023-02-17T05:17:31;10.10;99.90
35445;DHT22;21562;49.476;6.086;2023-02-17T05:19:57;10.00;99.90
35445;DHT22;21562;49.476;6.086;2023-02-17T05:22:23;10.00;99.90
35445;DHT22;21562;49.476;6.086;2023-02-17T05:24:49;10.10;99.90
35445;DHT22;21562;49.476;6.086;2023-02-17T05:27:14;10.10;99.90
35445;DHT22;21562;49.476;6.086;2023-02-17T05:29:40;10.10;99.90
35445;DHT22;21562;49.476;6.086;2023-02-17T05:32:05;10.10;99.90
35445;DHT22;21562;49.476;6.086;2023-02-17T05:34:31;10.10;99.90
35445;DHT22;21562;49.476;6.086;2023-02-17T05:36:57;10.00;99.90
35445;DHT22;21562;49.476;6.086;2023-02-17T05:39:22;10.10;99.90
35445;DHT22;21562;49.476;6.086;2023-02-17T05:41:48;10.20;99.90
35445;DHT22;21562;49.476;6.086;2023-02-17T05:44:14;10.20;99.90
35445;DHT22;21562;49.476;6.086;2023-02-17T05:46:39;10.10;99.90
35445;DHT22;21562;49.476;6.086;2023-02-17T05:49:05;10.30;99.90
35445;DHT22;21562;49.476;6.086;2023-02-17T05:51:31;10.40;99.90
35445;DHT22;21562;49.476;6.086;2023-02-17T05:53:56;10.40;99.90
35445;DHT22;21562;49.476;6.086;2023-02-17T05:56:22;10.40;99.90
35445;DHT22;21562;49.476;6.086;2023-02-17T05:58:48;10.30;99.90
35445;DHT22;21562;49.476;6.086;2023-02-17T06:01:13;10.30;99.90
35445;DHT22;21562;49.476;6.086;2023-02-17T06:03:39;10.10;99.90
35445;DHT22;21562;49.476;6.086;2023-02-17T06:06:05;10.10;99.90
35445;DHT22;21562;49.476;6.086;2023-02-17T06:08:32;10.10;99.90
35445;DHT22;21562;49.476;6.086;2023-02-17T06:10:57;10.10;99.90
35445;DHT22;21562;49.476;6.086;2023-02-17T06:13:23;10.20;99.90
35445;DHT22;21562;49.476;6.086;2023-02-17T06:15:49;10.20;99.90
35445;DHT22;21562;49.476;6.086;2023-02-17T06:18:15;10.30;99.90
35445;DHT22;21562;49.476;6.086;2023-02-17T06:20:40;10.20;99.90
35445;DHT22;21562;49.476;6.086;2023-02-17T06:23:06;10.20;99.90
35445;DHT22;21562;49.476;6.086;2023-02-17T06:25:32;10.10;99.90
35445;DHT22;21562;49.476;6.086;2023-02-17T06:27:57;10.10;99.90
35445;DHT22;21562;49.476;6.086;2023-02-17T06:30:23;10.10;99.90
35445;DHT22;21562;49.476;6.086;2023-02-17T06:32:49;10.20;99.90
35445;DHT22;21562;49.476;6.086;2023-02-17T06:35:15;10.10;99.90
35445;DHT22;21562;49.476;6.086;2023-02-17T06:37:41;10.10;99.90
35445;DHT22;21562;49.476;6.086;2023-02-17T06:40:07;10.20;99.90
35445;DHT22;21562;49.476;6.086;2023-02-17T06:42:33;10.30;99.90
35445;DHT22;21562;49.476;6.086;2023-02-17T06:45:00;10.20;99.90
35445;DHT22;21562;49.476;6.086;2023-02-17T06:47:27;10.20;99.90
35445;DHT22;21562;49.476;6.086;2023-02-17T06:49:53;10.20;99.90
35445;DHT22;21562;49.476;6.086;2023-02-17T06:52:19;10.30;99.90
35445;DHT22;21562;49.476;6.086;2023-02-17T06:54:44;10.30;99.90
35445;DHT22;21562;49.476;6.086;2023-02-17T06:57:11;10.30;99.90
35445;DHT22;21562;49.476;6.086;2023-02-17T06:59:37;10.30;99.90
35445;DHT22;21562;49.476;6.086;2023-02-17T07:02:03;10.30;99.90
35445;DHT22;21562;49.476;6.086;2023-02-17T07:04:28;10.40;99.90
35445;DHT22;21562;49.476;6.086;2023-02-17T07:06:54;10.50;99.90
35445;DHT22;21562;49.476;6.086;2023-02-17T07:09:20;10.30;99.90
35445;DHT22;21562;49.476;6.086;2023-02-17T07:11:45;10.20;99.90
35445;DHT22;21562;49.476;6.086;2023-02-17T07:14:11;10.20;99.90
35445;DHT22;21562;49.476;6.086;2023-02-17T07:16:36;10.20;99.90
35445;DHT22;21562;49.476;6.086;2023-02-17T07:19:03;10.30;99.90
35445;DHT22;21562;49.476;6.086;2023-02-17T07:21:29;10.30;99.90
35445;DHT22;21562;49.476;6.086;2023-02-17T07:23:55;10.40;99.90
35445;DHT22;21562;49.476;6.086;2023-02-17T07:26:21;10.50;99.90
35445;DHT22;21562;49.476;6.086;2023-02-17T07:28:46;10.50;99.90
35445;DHT22;21562;49.476;6.086;2023-02-17T07:31:14;10.40;99.90
35445;DHT22;21562;49.476;6.086;2023-02-17T07:33:41;10.30;99.90
35445;DHT22;21562;49.476;6.086;2023-02-17T07:38:33;10.40;99.90
35445;DHT22;21562;49.476;6.086;2023-02-17T07:41:13;10.40;99.90
35445;DHT22;21562;49.476;6.086;2023-02-17T07:43:39;10.40;99.90
35445;DHT22;21562;49.476;6.086;2023-02-17T07:46:07;10.30;99.90
35445;DHT22;21562;49.476;6.086;2023-02-17T07:48:33;10.40;99.90
35445;DHT22;21562;49.476;6.086;2023-02-17T07:51:07;10.40;99.90
35445;DHT22;21562;49.476;6.086;2023-02-17T07:53:33;10.30;99.90
35445;DHT22;21562;49.476;6.086;2023-02-17T07:56:02;10.30;99.90
35445;DHT22;21562;49.476;6.086;2023-02-17T07:58:30;10.30;99.90
35445;DHT22;21562;49.476;6.086;2023-02-17T08:00:55;10.20;99.90
35445;DHT22;21562;49.476;6.086;2023-02-17T08:03:21;10.20;99.90
35445;DHT22;21562;49.476;6.086;2023-02-17T08:05:46;10.30;99.90
35445;DHT22;21562;49.476;6.086;2023-02-17T08:08:15;10.40;99.90
35445;DHT22;21562;49.476;6.086;2023-02-17T08:11:04;10.40;99.90
35445;DHT22;21562;49.476;6.086;2023-02-17T08:13:48;10.40;99.90
35445;DHT22;21562;49.476;6.086;2023-02-17T08:16:13;10.30;99.90
35445;DHT22;21562;49.476;6.086;2023-02-17T08:18:39;10.50;99.90
35445;DHT22;21562;49.476;6.086;2023-02-17T08:21:05;10.50;99.90
35445;DHT22;21562;49.476;6.086;2023-02-17T08:23:30;10.40;99.90
35445;DHT22;21562;49.476;6.086;2023-02-17T08:25:57;10.40;99.90
35445;DHT22;21562;49.476;6.086;2023-02-17T08:28:23;10.50;99.90
35445;DHT22;21562;49.476;6.086;2023-02-17T08:30:49;10.50;99.90
35445;DHT22;21562;49.476;6.086;2023-02-17T08:33:15;10.50;99.90
35445;DHT22;21562;49.476;6.086;2023-02-17T08:35:44;10.60;99.90
35445;DHT22;21562;49.476;6.086;2023-02-17T08:38:10;10.60;99.90
35445;DHT22;21562;49.476;6.086;2023-02-17T08:40:36;10.60;99.90
35445;DHT22;21562;49.476;6.086;2023-02-17T08:43:02;10.50;99.90
35445;DHT22;21562;49.476;6.086;2023-02-17T08:45:27;10.60;99.90
35445;DHT22;21562;49.476;6.086;2023-02-17T08:47:53;10.70;99.90
35445;DHT22;21562;49.476;6.086;2023-02-17T08:50:18;10.60;99.90
35445;DHT22;21562;49.476;6.086;2023-02-17T08:52:45;10.50;99.90
35445;DHT22;21562;49.476;6.086;2023-02-17T08:55:11;10.60;99.90
35445;DHT22;21562;49.476;6.086;2023-02-17T08:57:37;10.60;99.90
35445;DHT22;21562;49.476;6.086;2023-02-17T09:00:06;10.60;99.90
35445;DHT22;21562;49.476;6.086;2023-02-17T09:02:32;10.50;99.90
35445;DHT22;21562;49.476;6.086;2023-02-17T09:04:58;10.60;99.90
35445;DHT22;21562;49.476;6.086;2023-02-17T09:07:23;10.60;99.90
35445;DHT22;21562;49.476;6.086;2023-02-17T09:09:49;10.40;99.90
35445;DHT22;21562;49.476;6.086;2023-02-17T09:12:15;10.40;99.90
35445;DHT22;21562;49.476;6.086;2023-02-17T09:14:40;10.60;99.90
35445;DHT22;21562;49.476;6.086;2023-02-17T09:17:06;10.70;99.90
35445;DHT22;21562;49.476;6.086;2023-02-17T09:19:31;10.70;99.90
35445;DHT22;21562;49.476;6.086;2023-02-17T09:21:57;10.70;99.90
35445;DHT22;21562;49.476;6.086;2023-02-17T09:24:23;10.60;99.90
35445;DHT22;21562;49.476;6.086;2023-02-17T09:26:48;10.70;99.90
35445;DHT22;21562;49.476;6.086;2023-02-17T09:29:14;10.60;99.90
35445;DHT22;21562;49.476;6.086;2023-02-17T09:31:40;10.50;99.90
35445;DHT22;21562;49.476;6.086;2023-02-17T09:34:05;10.70;99.90
35445;DHT22;21562;49.476;6.086;2023-02-17T09:36:37;10.70;99.90
35445;DHT22;21562;49.476;6.086;2023-02-17T09:39:03;10.80;99.90
35445;DHT22;21562;49.476;6.086;2023-02-17T09:41:40;10.80;99.90
35445;DHT22;21562;49.476;6.086;2023-02-17T09:44:40;10.90;99.90
35445;DHT22;21562;49.476;6.086;2023-02-17T09:47:08;11.00;99.90
35445;DHT22;21562;49.476;6.086;2023-02-17T09:49:47;10.90;99.90
35445;DHT22;21562;49.476;6.086;2023-02-17T09:55:09;11.00;99.90
35445;DHT22;21562;49.476;6.086;2023-02-17T10:00:50;11.10;99.90
35445;DHT22;21562;49.476;6.086;2023-02-17T10:03:30;11.10;99.90
35445;DHT22;21562;49.476;6.086;2023-02-17T10:06:25;11.30;99.90
35445;DHT22;21562;49.476;6.086;2023-02-17T10:09:00;11.20;99.90
35445;DHT22;21562;49.476;6.086;2023-02-17T10:11:31;11.10;99.90
35445;DHT22;21562;49.476;6.086;2023-02-17T10:14:05;11.00;99.90
35445;DHT22;21562;49.476;6.086;2023-02-17T10:17:12;11.00;99.90
35445;DHT22;21562;49.476;6.086;2023-02-17T10:19:46;11.00;99.90
35445;DHT22;21562;49.476;6.086;2023-02-17T10:22:36;11.20;99.90
35445;DHT22;21562;49.476;6.086;2023-02-17T10:31:12;11.20;99.90
35445;DHT22;21562;49.476;6.086;2023-02-17T10:34:12;11.20;99.90
35445;DHT22;21562;49.476;6.086;2023-02-17T10:38:02;11.30;99.90
35445;DHT22;21562;49.476;6.086;2023-02-17T10:40:17;11.40;99.90
35445;DHT22;21562;49.476;6.086;2023-02-17T10:42:44;11.20;99.90
35445;DHT22;21562;49.476;6.086;2023-02-17T10:45:25;11.30;99.90
35445;DHT22;21562;49.476;6.086;2023-02-17T10:50:27;11.40;99.90
35445;DHT22;21562;49.476;6.086;2023-02-17T10:52:56;11.50;99.90
35445;DHT22;21562;49.476;6.086;2023-02-17T10:55:35;11.50;99.90
35445;DHT22;21562;49.476;6.086;2023-02-17T10:58:09;11.40;99.90
35445;DHT22;21562;49.476;6.086;2023-02-17T11:00:41;11.40;99.90
35445;DHT22;21562;49.476;6.086;2023-02-17T11:03:18;11.30;99.90
35445;DHT22;21562;49.476;6.086;2023-02-17T11:05:52;11.30;99.90
35445;DHT22;21562;49.476;6.086;2023-02-17T11:08:43;11.40;99.90
35445;DHT22;21562;49.476;6.086;2023-02-17T11:11:19;11.30;99.90
35445;DHT22;21562;49.476;6.086;2023-02-17T11:16:36;11.30;99.90
35445;DHT22;21562;49.476;6.086;2023-02-17T11:19:06;11.40;99.90
35445;DHT22;21562;49.476;6.086;2023-02-17T11:21:43;11.40;99.90
35445;DHT22;21562;49.476;6.086;2023-02-17T11:24:12;11.40;99.90
35445;DHT22;21562;49.476;6.086;2023-02-17T11:26:37;11.50;99.90
35445;DHT22;21562;49.476;6.086;2023-02-17T11:29:15;11.50;99.90
35445;DHT22;21562;49.476;6.086;2023-02-17T11:32:06;11.50;99.90
35445;DHT22;21562;49.476;6.086;2023-02-17T11:34:56;11.40;99.90
35445;DHT22;21562;49.476;6.086;2023-02-17T11:37:23;11.40;99.90
35445;DHT22;21562;49.476;6.086;2023-02-17T11:39:53;11.50;99.90
35445;DHT22;21562;49.476;6.086;2023-02-17T11:42:29;11.50;99.90
35445;DHT22;21562;49.476;6.086;2023-02-17T11:44:59;11.40;99.90
35445;DHT22;21562;49.476;6.086;2023-02-17T11:47:50;11.50;99.90
35445;DHT22;21562;49.476;6.086;2023-02-17T11:50:29;11.70;99.90
35445;DHT22;21562;49.476;6.086;2023-02-17T11:53:22;11.80;99.90
35445;DHT22;21562;49.476;6.086;2023-02-17T11:56:03;11.60;99.90
35445;DHT22;21562;49.476;6.086;2023-02-17T12:12:56;11.60;99.90
35445;DHT22;21562;49.476;6.086;2023-02-17T12:15:47;11.80;99.90
35445;DHT22;21562;49.476;6.086;2023-02-17T12:23:57;11.70;99.90
35445;DHT22;21562;49.476;6.086;2023-02-17T12:38:16;11.70;99.90
35445;DHT22;21562;49.476;6.086;2023-02-17T12:41:04;11.80;99.90
35445;DHT22;21562;49.476;6.086;2023-02-17T12:43:41;11.90;99.90
35445;DHT22;21562;49.476;6.086;2023-02-17T12:46:13;11.90;99.90
35445;DHT22;21562;49.476;6.086;2023-02-17T12:48:45;11.80;99.90
35445;DHT22;21562;49.476;6.086;2023-02-17T12:54:05;11.70;99.90
35445;DHT22;21562;49.476;6.086;2023-02-17T12:59:11;11.70;99.90
35445;DHT22;21562;49.476;6.086;2023-02-17T13:01:52;11.60;99.90
35445;DHT22;21562;49.476;6.086;2023-02-17T13:04:22;11.60;99.90
35445;DHT22;21562;49.476;6.086;2023-02-17T13:09:39;11.70;99.90
35445;DHT22;21562;49.476;6.086;2023-02-17T13:14:49;11.80;99.90
35445;DHT22;21562;49.476;6.086;2023-02-17T13:17:32;11.60;99.90
35445;DHT22;21562;49.476;6.086;2023-02-17T13:22:30;11.70;99.90
35445;DHT22;21562;49.476;6.086;2023-02-17T13:24:56;11.60;99.90
35445;DHT22;21562;49.476;6.086;2023-02-17T13:32:42;11.70;99.90
35445;DHT22;21562;49.476;6.086;2023-02-17T13:35:28;11.80;99.90
35445;DHT22;21562;49.476;6.086;2023-02-17T13:37:55;11.90;99.90
35445;DHT22;21562;49.476;6.086;2023-02-17T13:42:47;12.00;99.90
35445;DHT22;21562;49.476;6.086;2023-02-17T13:50:44;11.70;99.90
35445;DHT22;21562;49.476;6.086;2023-02-17T13:53:48;11.80;99.90
35445;DHT22;21562;49.476;6.086;2023-02-17T13:56:32;12.00;99.90
35445;DHT22;21562;49.476;6.086;2023-02-17T13:59:17;12.10;99.90
35445;DHT22;21562;49.476;6.086;2023-02-17T14:01:48;12.00;99.90
35445;DHT22;21562;49.476;6.086;2023-02-17T14:06:47;11.90;99.90
35445;DHT22;21562;49.476;6.086;2023-02-17T14:09:27;11.90;99.90
35445;DHT22;21562;49.476;6.086;2023-02-17T14:11:54;11.90;99.90
35445;DHT22;21562;49.476;6.086;2023-02-17T14:14:22;11.80;99.90
35445;DHT22;21562;49.476;6.086;2023-02-17T14:19:25;11.90;99.90
35445;DHT22;21562;49.476;6.086;2023-02-17T14:22:02;11.90;99.90
35445;DHT22;21562;49.476;6.086;2023-02-17T14:24:36;12.00;99.90
35445;DHT22;21562;49.476;6.086;2023-02-17T14:27:06;11.70;99.90
35445;DHT22;21562;49.476;6.086;2023-02-17T14:29:48;11.80;99.90
35445;DHT22;21562;49.476;6.086;2023-02-17T14:32:28;11.80;99.90
35445;DHT22;21562;49.476;6.086;2023-02-17T14:37:33;11.70;99.90
35445;DHT22;21562;49.476;6.086;2023-02-17T14:40:05;11.70;99.90
35445;DHT22;21562;49.476;6.086;2023-02-17T14:42:31;11.90;99.90
35445;DHT22;21562;49.476;6.086;2023-02-17T14:44:56;11.90;99.90
35445;DHT22;21562;49.476;6.086;2023-02-17T14:47:22;11.70;99.90
35445;DHT22;21562;49.476;6.086;2023-02-17T14:49:47;11.60;99.90
35445;DHT22;21562;49.476;6.086;2023-02-17T14:52:18;11.60;99.90
35445;DHT22;21562;49.476;6.086;2023-02-17T14:54:45;11.60;99.90
35445;DHT22;21562;49.476;6.086;2023-02-17T14:57:12;11.60;99.90
35445;DHT22;21562;49.476;6.086;2023-02-17T14:59:39;11.60;99.90
35445;DHT22;21562;49.476;6.086;2023-02-17T15:02:23;11.40;99.90
35445;DHT22;21562;49.476;6.086;2023-02-17T15:04:48;11.60;99.90
35445;DHT22;21562;49.476;6.086;2023-02-17T15:07:16;11.60;99.90
35445;DHT22;21562;49.476;6.086;2023-02-17T15:09:46;11.60;99.90
35445;DHT22;21562;49.476;6.086;2023-02-17T15:12:17;11.60;99.90
35445;DHT22;21562;49.476;6.086;2023-02-17T15:14:43;11.50;99.90
35445;DHT22;21562;49.476;6.086;2023-02-17T15:17:11;11.50;99.90
35445;DHT22;21562;49.476;6.086;2023-02-17T15:19:37;11.80;99.90
35445;DHT22;21562;49.476;6.086;2023-02-17T15:22:03;11.50;99.90
35445;DHT22;21562;49.476;6.086;2023-02-17T15:24:33;11.50;99.90
35445;DHT22;21562;49.476;6.086;2023-02-17T15:27:01;11.50;99.90
35445;DHT22;21562;49.476;6.086;2023-02-17T15:29:27;11.50;99.90
35445;DHT22;21562;49.476;6.086;2023-02-17T15:31:54;11.50;99.90
35445;DHT22;21562;49.476;6.086;2023-02-17T15:34:26;11.60;99.90
35445;DHT22;21562;49.476;6.086;2023-02-17T15:36:55;11.60;99.90
35445;DHT22;21562;49.476;6.086;2023-02-17T15:39:21;12.10;99.90
35445;DHT22;21562;49.476;6.086;2023-02-17T15:41:47;11.80;99.90
35445;DHT22;21562;49.476;6.086;2023-02-17T15:44:22;11.70;99.90
35445;DHT22;21562;49.476;6.086;2023-02-17T15:46:50;11.60;99.90
35445;DHT22;21562;49.476;6.086;2023-02-17T15:49:16;11.80;99.90
35445;DHT22;21562;49.476;6.086;2023-02-17T15:51:42;11.90;99.90
35445;DHT22;21562;49.476;6.086;2023-02-17T15:54:08;11.90;99.90
35445;DHT22;21562;49.476;6.086;2023-02-17T15:57:12;11.90;99.90
35445;DHT22;21562;49.476;6.086;2023-02-17T15:59:29;11.90;99.90
35445;DHT22;21562;49.476;6.086;2023-02-17T16:01:54;11.80;99.90
35445;DHT22;21562;49.476;6.086;2023-02-17T16:04:21;11.90;99.90
35445;DHT22;21562;49.476;6.086;2023-02-17T16:06:47;11.90;99.90
35445;DHT22;21562;49.476;6.086;2023-02-17T16:09:14;12.10;99.90
35445;DHT22;21562;49.476;6.086;2023-02-17T16:11:48;12.00;99.90
35445;DHT22;21562;49.476;6.086;2023-02-17T16:14:34;12.00;99.90
35445;DHT22;21562;49.476;6.086;2023-02-17T16:17:01;12.10;99.90
35445;DHT22;21562;49.476;6.086;2023-02-17T16:19:27;12.30;99.90
35445;DHT22;21562;49.476;6.086;2023-02-17T16:21:53;12.20;99.90
35445;DHT22;21562;49.476;6.086;2023-02-17T16:24:19;11.90;99.90
35445;DHT22;21562;49.476;6.086;2023-02-17T16:26:47;12.00;99.90
35445;DHT22;21562;49.476;6.086;2023-02-17T16:29:18;11.90;99.90
35445;DHT22;21562;49.476;6.086;2023-02-17T16:31:44;12.00;99.90
35445;DHT22;21562;49.476;6.086;2023-02-17T16:34:18;12.00;99.90
35445;DHT22;21562;49.476;6.086;2023-02-17T16:36:49;11.90;99.90
35445;DHT22;21562;49.476;6.086;2023-02-17T16:39:18;11.90;99.90
35445;DHT22;21562;49.476;6.086;2023-02-17T16:41:48;11.90;99.90
35445;DHT22;21562;49.476;6.086;2023-02-17T16:44:16;11.90;99.90
35445;DHT22;21562;49.476;6.086;2023-02-17T16:46:49;11.60;99.90
35445;DHT22;21562;49.476;6.086;2023-02-17T16:49:31;11.70;99.90
35445;DHT22;21562;49.476;6.086;2023-02-17T16:51:58;11.70;99.90
35445;DHT22;21562;49.476;6.086;2023-02-17T16:54:24;11.90;99.90
35445;DHT22;21562;49.476;6.086;2023-02-17T16:56:51;12.00;99.90
35445;DHT22;21562;49.476;6.086;2023-02-17T16:59:20;11.80;99.90
35445;DHT22;21562;49.476;6.086;2023-02-17T17:01:46;11.80;99.90
35445;DHT22;21562;49.476;6.086;2023-02-17T17:04:12;11.70;99.90
35445;DHT22;21562;49.476;6.086;2023-02-17T17:06:43;11.80;99.90
35445;DHT22;21562;49.476;6.086;2023-02-17T17:09:18;11.80;99.90
35445;DHT22;21562;49.476;6.086;2023-02-17T17:11:45;11.90;99.90
35445;DHT22;21562;49.476;6.086;2023-02-17T17:14:11;11.90;99.90
35445;DHT22;21562;49.476;6.086;2023-02-17T17:16:37;11.90;99.90
35445;DHT22;21562;49.476;6.086;2023-02-17T17:19:06;12.00;99.90
35445;DHT22;21562;49.476;6.086;2023-02-17T17:21:32;12.00;99.90
35445;DHT22;21562;49.476;6.086;2023-02-17T17:23:58;12.10;99.90
35445;DHT22;21562;49.476;6.086;2023-02-17T17:26:35;12.20;99.90
35445;DHT22;21562;49.476;6.086;2023-02-17T17:29:04;12.10;99.90
35445;DHT22;21562;49.476;6.086;2023-02-17T17:31:31;11.90;99.90
35445;DHT22;21562;49.476;6.086;2023-02-17T17:33:57;11.80;99.90
35445;DHT22;21562;49.476;6.086;2023-02-17T17:36:43;12.00;99.90
35445;DHT22;21562;49.476;6.086;2023-02-17T17:39:14;12.20;99.90
35445;DHT22;21562;49.476;6.086;2023-02-17T17:41:40;12.10;99.90